2026/07/24

Sensor Date Temp./Hum.
h4-hermonville 24-07-2026 - 23:58 21.4°C / 55%
h2-hermonville 24-07-2026 - 23:54 20.4°C / 60%
h1-hermonville 24-07-2026 - 23:54 20.3°C / 59.5%
h3-hermonville 24-07-2026 - 23:50 20.5°C / 58.5%
h4-hermonville 24-07-2026 - 23:48 21.6°C / 54%
h2-hermonville 24-07-2026 - 23:44 20.5°C / 59.5%
h1-hermonville 24-07-2026 - 23:44 20.5°C / 59%
h3-hermonville 24-07-2026 - 23:40 20.4°C / 59%
h2-hermonville 24-07-2026 - 23:34 20.7°C / 59.5%
h1-hermonville 24-07-2026 - 23:34 20.6°C / 59%
h3-hermonville 24-07-2026 - 23:30 21°C / 57%
h4-hermonville 24-07-2026 - 23:28 21.7°C / 54%
h2-hermonville 24-07-2026 - 23:24 20.9°C / 58%
h1-hermonville 24-07-2026 - 23:24 20.8°C / 58%
h3-hermonville 24-07-2026 - 23:20 21.2°C / 56.5%
h4-hermonville 24-07-2026 - 23:18 21.8°C / 53.5%
h2-hermonville 24-07-2026 - 23:14 21.4°C / 56.5%
h1-hermonville 24-07-2026 - 23:14 21°C / 57.5%
h3-hermonville 24-07-2026 - 23:10 21.8°C / 54.5%
h4-hermonville 24-07-2026 - 23:08 22.1°C / 53%
h2-hermonville 24-07-2026 - 23:04 21.8°C / 55%
h1-hermonville 24-07-2026 - 23:04 21.3°C / 56.5%
h3-hermonville 24-07-2026 - 23:00 21.9°C / 54%
h4-hermonville 24-07-2026 - 22:58 22.1°C / 52.5%
h2-hermonville 24-07-2026 - 22:54 22.2°C / 54%
h1-hermonville 24-07-2026 - 22:54 21.5°C / 56%
h3-hermonville 24-07-2026 - 22:50 21.7°C / 54.5%
h4-hermonville 24-07-2026 - 22:48 22.3°C / 52%
h2-hermonville 24-07-2026 - 22:44 22.2°C / 54%
h1-hermonville 24-07-2026 - 22:44 21.6°C / 56%
h3-hermonville 24-07-2026 - 22:40 22.1°C / 54%
h4-hermonville 24-07-2026 - 22:38 22.3°C / 52%
h2-hermonville 24-07-2026 - 22:34 23.3°C / 51%
h1-hermonville 24-07-2026 - 22:34 21.7°C / 55%
h3-hermonville 24-07-2026 - 22:30 22.8°C / 51.5%
h4-hermonville 24-07-2026 - 22:28 22.6°C / 51%
h2-hermonville 24-07-2026 - 22:24 23.8°C / 49.5%
h1-hermonville 24-07-2026 - 22:24 22°C / 54%
h3-hermonville 24-07-2026 - 22:20 23°C / 51%
h3-hermonville 24-07-2026 - 22:10 23.1°C / 50.5%
h1-hermonville 24-07-2026 - 22:04 22.4°C / 53%
h3-hermonville 24-07-2026 - 22:00 23.2°C / 50%
h1-hermonville 24-07-2026 - 21:54 22.7°C / 52.5%
h3-hermonville 24-07-2026 - 21:50 23.5°C / 49.5%
h3-hermonville 24-07-2026 - 21:40 23.6°C / 49%
h2-hermonville 24-07-2026 - 21:34 24.1°C / 49%
h1-hermonville 24-07-2026 - 21:34 23.2°C / 51%
h3-hermonville 24-07-2026 - 21:30 24.1°C / 48%
h1-hermonville 24-07-2026 - 21:24 23.3°C / 50%
h3-hermonville 24-07-2026 - 21:20 24.3°C / 47.5%
h2-hermonville 24-07-2026 - 21:14 24.3°C / 48%
h1-hermonville 24-07-2026 - 21:14 23.7°C / 49%
h3-hermonville 24-07-2026 - 21:10 24.6°C / 46.5%
h4-hermonville 24-07-2026 - 21:08 24°C / 47.5%
h2-hermonville 24-07-2026 - 21:04 24.4°C / 48%
h1-hermonville 24-07-2026 - 21:04 24°C / 48.5%
h3-hermonville 24-07-2026 - 21:00 24.7°C / 46%
h4-hermonville 24-07-2026 - 20:58 24.1°C / 47%
h2-hermonville 24-07-2026 - 20:54 24.6°C / 47.5%
h1-hermonville 24-07-2026 - 20:54 24.2°C / 47.5%
h3-hermonville 24-07-2026 - 20:50 24.8°C / 46%
h4-hermonville 24-07-2026 - 20:48 24.2°C / 46.5%
h2-hermonville 24-07-2026 - 20:44 24.6°C / 47%
h1-hermonville 24-07-2026 - 20:44 24.4°C / 47%
h3-hermonville 24-07-2026 - 20:40 24.9°C / 45.5%
h4-hermonville 24-07-2026 - 20:38 24.3°C / 46.5%
h2-hermonville 24-07-2026 - 20:34 24.8°C / 47%
h1-hermonville 24-07-2026 - 20:34 24.5°C / 46.5%
h3-hermonville 24-07-2026 - 20:30 25.1°C / 45%
h2-hermonville 24-07-2026 - 20:24 24.9°C / 46.5%
h1-hermonville 24-07-2026 - 20:24 24.6°C / 46%
h3-hermonville 24-07-2026 - 20:20 25.1°C / 45%
h1-hermonville 24-07-2026 - 20:14 24.9°C / 45.5%
h3-hermonville 24-07-2026 - 20:10 25.4°C / 44%
h2-hermonville 24-07-2026 - 20:04 25.3°C / 45%
h1-hermonville 24-07-2026 - 20:04 25°C / 45%
h3-hermonville 24-07-2026 - 20:00 25.5°C / 44%
h2-hermonville 24-07-2026 - 19:54 25.7°C / 44.5%
h1-hermonville 24-07-2026 - 19:54 25°C / 44.5%
h3-hermonville 24-07-2026 - 19:50 25.6°C / 43.5%
h2-hermonville 24-07-2026 - 19:44 25.6°C / 44.5%
h1-hermonville 24-07-2026 - 19:44 25°C / 45%
h3-hermonville 24-07-2026 - 19:40 25.6°C / 43.5%
h2-hermonville 24-07-2026 - 19:34 25.5°C / 44.5%
h1-hermonville 24-07-2026 - 19:34 25°C / 44.5%
h3-hermonville 24-07-2026 - 19:30 25.4°C / 43.5%
h1-hermonville 24-07-2026 - 19:24 25.2°C / 44%
h3-hermonville 24-07-2026 - 19:20 25.6°C / 43.5%
h1-hermonville 24-07-2026 - 19:14 25.4°C / 43.5%
h3-hermonville 24-07-2026 - 19:10 25.6°C / 42.5%
h1-hermonville 24-07-2026 - 19:04 25.6°C / 42%
h3-hermonville 24-07-2026 - 19:00 25.5°C / 41.5%
h2-hermonville 24-07-2026 - 18:54 26°C / 42%
h1-hermonville 24-07-2026 - 18:54 25.6°C / 41%
h3-hermonville 24-07-2026 - 18:50 25.8°C / 41.5%
h1-hermonville 24-07-2026 - 18:44 25.6°C / 41.5%
h3-hermonville 24-07-2026 - 18:40 25.8°C / 41.5%
h1-hermonville 24-07-2026 - 18:34 25.8°C / 41%
h3-hermonville 24-07-2026 - 18:30 25.9°C / 41%
h1-hermonville 24-07-2026 - 18:24 25.9°C / 40.5%
h3-hermonville 24-07-2026 - 18:20 25.8°C / 40.5%
h1-hermonville 24-07-2026 - 18:14 26.1°C / 40.5%
h3-hermonville 24-07-2026 - 18:10 25.9°C / 40%
h1-hermonville 24-07-2026 - 18:04 26.2°C / 39.5%
h3-hermonville 24-07-2026 - 18:00 26°C / 39.5%
h1-hermonville 24-07-2026 - 17:54 26.2°C / 39.5%
h3-hermonville 24-07-2026 - 17:50 26.2°C / 40%
h1-hermonville 24-07-2026 - 17:44 26.3°C / 40%
h3-hermonville 24-07-2026 - 17:40 26.4°C / 40%
h2-hermonville 24-07-2026 - 17:34 28.1°C / 38%
h3-hermonville 24-07-2026 - 17:30 26.5°C / 39.5%
h1-hermonville 24-07-2026 - 17:24 26.1°C / 40%
h3-hermonville 24-07-2026 - 17:20 26.1°C / 40.5%
h1-hermonville 24-07-2026 - 17:14 25.9°C / 40%
h3-hermonville 24-07-2026 - 17:10 25.8°C / 40.5%
h4-hermonville 24-07-2026 - 17:08 25.6°C / 41%
h2-hermonville 24-07-2026 - 17:04 28.1°C / 38%
h4-hermonville 24-07-2026 - 16:58 25.6°C / 41%
h2-hermonville 24-07-2026 - 16:54 28.7°C / 37.5%
h1-hermonville 24-07-2026 - 16:54 25.6°C / 41.5%
h3-hermonville 24-07-2026 - 16:50 26.2°C / 41%
h4-hermonville 24-07-2026 - 16:48 25.7°C / 41.5%
h2-hermonville 24-07-2026 - 16:44 28°C / 39%
h1-hermonville 24-07-2026 - 16:44 26°C / 42%
h3-hermonville 24-07-2026 - 16:40 26.4°C / 41%
h4-hermonville 24-07-2026 - 16:38 25.5°C / 41.5%
h2-hermonville 24-07-2026 - 16:34 27.3°C / 40.5%
h1-hermonville 24-07-2026 - 16:34 25.4°C / 42%
h3-hermonville 24-07-2026 - 16:30 26.5°C / 41%
h4-hermonville 24-07-2026 - 16:28 25.5°C / 42.5%
h2-hermonville 24-07-2026 - 16:24 27.1°C / 40.5%
h1-hermonville 24-07-2026 - 16:24 25.9°C / 42.5%
h3-hermonville 24-07-2026 - 16:20 25.6°C / 42.5%
h4-hermonville 24-07-2026 - 16:18 25.5°C / 42.5%
h2-hermonville 24-07-2026 - 16:14 26.4°C / 41%
h1-hermonville 24-07-2026 - 16:14 25.7°C / 42%
h3-hermonville 24-07-2026 - 16:10 26.1°C / 41.5%
h4-hermonville 24-07-2026 - 16:08 25.3°C / 42%
h2-hermonville 24-07-2026 - 16:04 26°C / 42.5%
h1-hermonville 24-07-2026 - 16:04 25.4°C / 42.5%
h4-hermonville 24-07-2026 - 15:58 25.2°C / 43%
h2-hermonville 24-07-2026 - 15:54 25.7°C / 43%
h1-hermonville 24-07-2026 - 15:54 25.2°C / 43%
h3-hermonville 24-07-2026 - 15:50 25.4°C / 43%
h4-hermonville 24-07-2026 - 15:48 25.1°C / 42.5%
h2-hermonville 24-07-2026 - 15:44 25.4°C / 42%
h1-hermonville 24-07-2026 - 15:44 25°C / 42%
h3-hermonville 24-07-2026 - 15:40 25°C / 43.5%
h4-hermonville 24-07-2026 - 15:38 24.9°C / 43%
h2-hermonville 24-07-2026 - 15:34 25.3°C / 43.5%
h1-hermonville 24-07-2026 - 15:34 24.7°C / 44.5%
h3-hermonville 24-07-2026 - 15:30 25.1°C / 43%
h4-hermonville 24-07-2026 - 15:28 24.7°C / 42.5%
h2-hermonville 24-07-2026 - 15:24 25.1°C / 43.5%
h1-hermonville 24-07-2026 - 15:24 24.6°C / 43.5%
h3-hermonville 24-07-2026 - 15:20 24.9°C / 43.5%
h4-hermonville 24-07-2026 - 15:18 24.9°C / 42.5%
h2-hermonville 24-07-2026 - 15:14 24.9°C / 43.5%
h1-hermonville 24-07-2026 - 15:14 24.5°C / 43.5%
h3-hermonville 24-07-2026 - 15:10 24.8°C / 43%
h4-hermonville 24-07-2026 - 15:08 24.8°C / 42.5%
h2-hermonville 24-07-2026 - 15:04 24.7°C / 45%
h1-hermonville 24-07-2026 - 15:04 24.2°C / 45.5%
h3-hermonville 24-07-2026 - 15:00 24.7°C / 44%
h2-hermonville 24-07-2026 - 14:54 24.7°C / 45%
h1-hermonville 24-07-2026 - 14:54 24.3°C / 44.5%
h3-hermonville 24-07-2026 - 14:50 24.6°C / 44%
h4-hermonville 24-07-2026 - 14:48 24.6°C / 43%
h2-hermonville 24-07-2026 - 14:44 24.5°C / 45%
h1-hermonville 24-07-2026 - 14:44 24.1°C / 46%
h3-hermonville 24-07-2026 - 14:40 24.6°C / 44%
h4-hermonville 24-07-2026 - 14:38 24.5°C / 43%
h2-hermonville 24-07-2026 - 14:34 24.5°C / 45%
h1-hermonville 24-07-2026 - 14:34 24.1°C / 44.5%
h3-hermonville 24-07-2026 - 14:30 24.6°C / 45%
h2-hermonville 24-07-2026 - 14:24 24.3°C / 45.5%
h1-hermonville 24-07-2026 - 14:24 23.9°C / 46%
h3-hermonville 24-07-2026 - 14:20 24.5°C / 45%
h4-hermonville 24-07-2026 - 14:18 24.4°C / 43.5%
h2-hermonville 24-07-2026 - 14:14 24.4°C / 45.5%
h1-hermonville 24-07-2026 - 14:14 24°C / 45.5%
h3-hermonville 24-07-2026 - 14:10 24.4°C / 45%
h2-hermonville 24-07-2026 - 14:04 24.3°C / 46%
h1-hermonville 24-07-2026 - 14:04 23.8°C / 46%
h3-hermonville 24-07-2026 - 14:00 24.4°C / 45.5%
h4-hermonville 24-07-2026 - 13:58 24.5°C / 44%
h2-hermonville 24-07-2026 - 13:54 24.2°C / 46.5%
h1-hermonville 24-07-2026 - 13:54 23.5°C / 47%
h3-hermonville 24-07-2026 - 13:50 24.1°C / 45.5%
h4-hermonville 24-07-2026 - 13:48 24.4°C / 44%
h2-hermonville 24-07-2026 - 13:44 23.9°C / 46.5%
h1-hermonville 24-07-2026 - 13:44 23.4°C / 47%
h3-hermonville 24-07-2026 - 13:40 23.7°C / 46%
h4-hermonville 24-07-2026 - 13:38 24.4°C / 44%
h2-hermonville 24-07-2026 - 13:34 23.7°C / 46.5%
h1-hermonville 24-07-2026 - 13:34 23.3°C / 47.5%
h3-hermonville 24-07-2026 - 13:30 23.6°C / 46.5%
h4-hermonville 24-07-2026 - 13:28 24.3°C / 44%
h2-hermonville 24-07-2026 - 13:24 23.4°C / 47%
h1-hermonville 24-07-2026 - 13:24 23°C / 47.5%
h3-hermonville 24-07-2026 - 13:20 23.5°C / 46%
h4-hermonville 24-07-2026 - 13:18 24.2°C / 43.5%
h2-hermonville 24-07-2026 - 13:14 23.3°C / 47.5%
h1-hermonville 24-07-2026 - 13:14 23°C / 47.5%
h3-hermonville 24-07-2026 - 13:10 23.6°C / 46.5%
h4-hermonville 24-07-2026 - 13:08 24.2°C / 44%
h2-hermonville 24-07-2026 - 13:04 23.4°C / 47%
h1-hermonville 24-07-2026 - 13:04 22.8°C / 48%
h3-hermonville 24-07-2026 - 13:00 23.2°C / 46.5%
h4-hermonville 24-07-2026 - 12:58 24.1°C / 44%
h2-hermonville 24-07-2026 - 12:54 23°C / 48%
h1-hermonville 24-07-2026 - 12:54 22.6°C / 48.5%
h3-hermonville 24-07-2026 - 12:50 23.1°C / 47.5%
h4-hermonville 24-07-2026 - 12:48 23.6°C / 44.5%
h2-hermonville 24-07-2026 - 12:44 23.1°C / 47.5%
h1-hermonville 24-07-2026 - 12:44 22.4°C / 48.5%
h3-hermonville 24-07-2026 - 12:40 23.1°C / 47.5%
h4-hermonville 24-07-2026 - 12:38 24.2°C / 43.5%
h2-hermonville 24-07-2026 - 12:34 22.9°C / 48%
h1-hermonville 24-07-2026 - 12:34 22.4°C / 48.5%
h3-hermonville 24-07-2026 - 12:30 22.8°C / 47.5%
h4-hermonville 24-07-2026 - 12:28 24.5°C / 43%
h2-hermonville 24-07-2026 - 12:24 22.8°C / 48.5%
h1-hermonville 24-07-2026 - 12:24 22.3°C / 49%
h3-hermonville 24-07-2026 - 12:20 22.9°C / 47.5%
h4-hermonville 24-07-2026 - 12:18 25.6°C / 41%
h2-hermonville 24-07-2026 - 12:14 22.9°C / 49.5%
h1-hermonville 24-07-2026 - 12:14 22.1°C / 49.5%
h3-hermonville 24-07-2026 - 12:10 22.7°C / 47.5%
h4-hermonville 24-07-2026 - 12:08 26.1°C / 39%
h2-hermonville 24-07-2026 - 12:04 22.7°C / 50%
h1-hermonville 24-07-2026 - 12:04 22.1°C / 49.5%
h3-hermonville 24-07-2026 - 12:00 22.4°C / 48.5%
h4-hermonville 24-07-2026 - 11:58 26.5°C / 38.5%
h2-hermonville 24-07-2026 - 11:54 22.4°C / 50%
h1-hermonville 24-07-2026 - 11:54 21.9°C / 50.5%
h3-hermonville 24-07-2026 - 11:50 22.4°C / 49.5%
h4-hermonville 24-07-2026 - 11:48 27.2°C / 38.5%
h2-hermonville 24-07-2026 - 11:44 22.3°C / 50.5%
h1-hermonville 24-07-2026 - 11:44 21.7°C / 51%
h3-hermonville 24-07-2026 - 11:40 22.2°C / 50.5%
h4-hermonville 24-07-2026 - 11:38 26°C / 40%
h2-hermonville 24-07-2026 - 11:34 22.1°C / 50.5%
h1-hermonville 24-07-2026 - 11:34 21.8°C / 51%
h3-hermonville 24-07-2026 - 11:30 22°C / 51%
h4-hermonville 24-07-2026 - 11:28 27.2°C / 38%
h2-hermonville 24-07-2026 - 11:24 21.7°C / 52.5%
h1-hermonville 24-07-2026 - 11:24 21.2°C / 52%
h3-hermonville 24-07-2026 - 11:20 21.6°C / 51.5%
h4-hermonville 24-07-2026 - 11:18 26.9°C / 38%
h2-hermonville 24-07-2026 - 11:14 21.5°C / 53.5%
h1-hermonville 24-07-2026 - 11:14 21.1°C / 53%
h3-hermonville 24-07-2026 - 11:10 21.7°C / 53%
h4-hermonville 24-07-2026 - 11:08 26.8°C / 39%
h2-hermonville 24-07-2026 - 11:04 21.3°C / 54.5%
h1-hermonville 24-07-2026 - 11:04 21.4°C / 54.5%
h3-hermonville 24-07-2026 - 11:00 21.4°C / 54.5%
h4-hermonville 24-07-2026 - 10:58 26.1°C / 41.5%
h2-hermonville 24-07-2026 - 10:54 21°C / 56.5%
h1-hermonville 24-07-2026 - 10:54 20.8°C / 57%
h3-hermonville 24-07-2026 - 10:50 21°C / 57%
h2-hermonville 24-07-2026 - 10:44 20.7°C / 59%
h1-hermonville 24-07-2026 - 10:44 20.6°C / 59.5%
h3-hermonville 24-07-2026 - 10:40 20.8°C / 58.5%
h4-hermonville 24-07-2026 - 10:38 25.3°C / 45%
h2-hermonville 24-07-2026 - 10:34 20.5°C / 59.5%
h1-hermonville 24-07-2026 - 10:34 20.2°C / 60.5%
h3-hermonville 24-07-2026 - 10:30 20.4°C / 59%
h4-hermonville 24-07-2026 - 10:28 25.5°C / 44.5%
h2-hermonville 24-07-2026 - 10:24 20.2°C / 60%
h1-hermonville 24-07-2026 - 10:24 19.5°C / 62.5%
h3-hermonville 24-07-2026 - 10:20 20.3°C / 60%
h4-hermonville 24-07-2026 - 10:18 24.6°C / 46.5%
h2-hermonville 24-07-2026 - 10:14 19.8°C / 61%
h1-hermonville 24-07-2026 - 10:14 19.3°C / 63.5%
h3-hermonville 24-07-2026 - 10:10 19.9°C / 61%
h4-hermonville 24-07-2026 - 10:08 24.1°C / 49%
h2-hermonville 24-07-2026 - 10:04 19.6°C / 62%
h1-hermonville 24-07-2026 - 10:04 18.8°C / 65%
h3-hermonville 24-07-2026 - 10:00 19.8°C / 61%
h4-hermonville 24-07-2026 - 09:58 23.8°C / 48.5%
h2-hermonville 24-07-2026 - 09:54 19.6°C / 62.5%
h1-hermonville 24-07-2026 - 09:54 18.6°C / 65.5%
h3-hermonville 24-07-2026 - 09:50 19.6°C / 62%
h4-hermonville 24-07-2026 - 09:48 24.3°C / 47%
h2-hermonville 24-07-2026 - 09:44 19.3°C / 63%
h1-hermonville 24-07-2026 - 09:44 18.4°C / 66%
h3-hermonville 24-07-2026 - 09:40 19.5°C / 62%
h4-hermonville 24-07-2026 - 09:38 24.1°C / 47.5%
h2-hermonville 24-07-2026 - 09:34 18.9°C / 65%
h1-hermonville 24-07-2026 - 09:34 17.8°C / 68.5%
h3-hermonville 24-07-2026 - 09:30 19.2°C / 63.5%
h4-hermonville 24-07-2026 - 09:28 24.8°C / 47%
h2-hermonville 24-07-2026 - 09:24 18.7°C / 65%
h1-hermonville 24-07-2026 - 09:24 17.4°C / 69.5%
h3-hermonville 24-07-2026 - 09:20 18.7°C / 64.5%
h4-hermonville 24-07-2026 - 09:18 24.2°C / 48%
h2-hermonville 24-07-2026 - 09:14 18.5°C / 66%
h1-hermonville 24-07-2026 - 09:14 17.3°C / 70%
h3-hermonville 24-07-2026 - 09:10 18.5°C / 64.5%
h4-hermonville 24-07-2026 - 09:08 22.4°C / 51.5%
h2-hermonville 24-07-2026 - 09:04 18°C / 67%
h1-hermonville 24-07-2026 - 09:04 16.8°C / 71.5%
h3-hermonville 24-07-2026 - 09:00 18.4°C / 65%
h4-hermonville 24-07-2026 - 08:58 22.1°C / 53.5%
h2-hermonville 24-07-2026 - 08:54 17.8°C / 68%
h1-hermonville 24-07-2026 - 08:54 16.7°C / 71%
h3-hermonville 24-07-2026 - 08:50 17.9°C / 66.5%
h4-hermonville 24-07-2026 - 08:48 22.1°C / 52.5%
h2-hermonville 24-07-2026 - 08:44 17.2°C / 70%
h1-hermonville 24-07-2026 - 08:44 16.5°C / 72%
h3-hermonville 24-07-2026 - 08:40 17.7°C / 67.5%
h4-hermonville 24-07-2026 - 08:38 20.8°C / 57.5%
h2-hermonville 24-07-2026 - 08:34 17°C / 70.5%
h1-hermonville 24-07-2026 - 08:34 16°C / 74%
h3-hermonville 24-07-2026 - 08:30 17.6°C / 68%
h4-hermonville 24-07-2026 - 08:28 19.8°C / 60%
h2-hermonville 24-07-2026 - 08:24 16.7°C / 71%
h1-hermonville 24-07-2026 - 08:24 16°C / 73.5%
h3-hermonville 24-07-2026 - 08:20 17.1°C / 70%
h4-hermonville 24-07-2026 - 08:18 19.3°C / 61.5%
h2-hermonville 24-07-2026 - 08:14 16.5°C / 72%
h1-hermonville 24-07-2026 - 08:14 15.9°C / 74%
h3-hermonville 24-07-2026 - 08:10 16.8°C / 70.5%
h4-hermonville 24-07-2026 - 08:08 18.7°C / 63%
h2-hermonville 24-07-2026 - 08:04 16.5°C / 72%
h1-hermonville 24-07-2026 - 08:04 15.5°C / 75.5%
h3-hermonville 24-07-2026 - 08:00 16.6°C / 71%
h4-hermonville 24-07-2026 - 07:58 18.3°C / 64.5%
h2-hermonville 24-07-2026 - 07:54 16.3°C / 72.5%
h1-hermonville 24-07-2026 - 07:54 15.5°C / 75.5%
h3-hermonville 24-07-2026 - 07:50 16.3°C / 72.5%
h4-hermonville 24-07-2026 - 07:48 18.1°C / 64.5%
h2-hermonville 24-07-2026 - 07:44 16°C / 73.5%
h1-hermonville 24-07-2026 - 07:44 15.2°C / 76.5%
h4-hermonville 24-07-2026 - 07:38 17.8°C / 65.5%
h2-hermonville 24-07-2026 - 07:34 15.7°C / 75%
h1-hermonville 24-07-2026 - 07:34 15.4°C / 76%
h3-hermonville 24-07-2026 - 07:30 15.8°C / 73.5%
h4-hermonville 24-07-2026 - 07:28 17.6°C / 66.5%
h2-hermonville 24-07-2026 - 07:24 15.5°C / 75%
h1-hermonville 24-07-2026 - 07:24 15.1°C / 77%
h3-hermonville 24-07-2026 - 07:20 15.6°C / 74%
h4-hermonville 24-07-2026 - 07:18 17.1°C / 68%
h2-hermonville 24-07-2026 - 07:14 15.2°C / 76%
h1-hermonville 24-07-2026 - 07:14 14.9°C / 77.5%
h3-hermonville 24-07-2026 - 07:10 15.4°C / 74.5%
h4-hermonville 24-07-2026 - 07:08 16.6°C / 68.5%
h2-hermonville 24-07-2026 - 07:04 14.9°C / 76%
h1-hermonville 24-07-2026 - 07:04 14.8°C / 77%
h3-hermonville 24-07-2026 - 07:00 14.7°C / 75.5%
h4-hermonville 24-07-2026 - 06:58 16°C / 69.5%
h2-hermonville 24-07-2026 - 06:54 14.8°C / 75.5%
h1-hermonville 24-07-2026 - 06:54 14.7°C / 76.5%
h3-hermonville 24-07-2026 - 06:50 14.5°C / 76%
h4-hermonville 24-07-2026 - 06:48 15.6°C / 70.5%
h2-hermonville 24-07-2026 - 06:44 14.9°C / 75.5%
h1-hermonville 24-07-2026 - 06:44 14.3°C / 77.5%
h3-hermonville 24-07-2026 - 06:40 14.5°C / 76.5%
h4-hermonville 24-07-2026 - 06:38 15.7°C / 70%
h2-hermonville 24-07-2026 - 06:34 14.5°C / 77.5%
h1-hermonville 24-07-2026 - 06:34 14.2°C / 79%
h3-hermonville 24-07-2026 - 06:30 14.1°C / 77.5%
h4-hermonville 24-07-2026 - 06:28 15.8°C / 69%
h2-hermonville 24-07-2026 - 06:24 14.1°C / 78.5%
h1-hermonville 24-07-2026 - 06:24 14.1°C / 78.5%
h3-hermonville 24-07-2026 - 06:20 14.1°C / 77%
h4-hermonville 24-07-2026 - 06:18 15.6°C / 70%
h2-hermonville 24-07-2026 - 06:14 13.8°C / 80%
h1-hermonville 24-07-2026 - 06:14 14.2°C / 79%
h3-hermonville 24-07-2026 - 06:10 14.4°C / 77.5%
h4-hermonville 24-07-2026 - 06:08 15.9°C / 69%
h2-hermonville 24-07-2026 - 06:04 14.1°C / 78%
h1-hermonville 24-07-2026 - 06:04 14.3°C / 77%
h3-hermonville 24-07-2026 - 06:00 14°C / 78%
h4-hermonville 24-07-2026 - 05:58 16.2°C / 68%
h2-hermonville 24-07-2026 - 05:54 14°C / 79%
h1-hermonville 24-07-2026 - 05:54 14.4°C / 77.5%
h3-hermonville 24-07-2026 - 05:50 14.4°C / 77.5%
h4-hermonville 24-07-2026 - 05:48 15.9°C / 69.5%
h2-hermonville 24-07-2026 - 05:44 14.2°C / 77.5%
h1-hermonville 24-07-2026 - 05:44 13.9°C / 79%
h3-hermonville 24-07-2026 - 05:40 14.4°C / 75.5%
h4-hermonville 24-07-2026 - 05:38 15.8°C / 69%
h2-hermonville 24-07-2026 - 05:34 14.6°C / 76%
h1-hermonville 24-07-2026 - 05:34 13.8°C / 79%
h3-hermonville 24-07-2026 - 05:30 14.6°C / 75.5%
h4-hermonville 24-07-2026 - 05:28 15.7°C / 70%
h2-hermonville 24-07-2026 - 05:24 14.4°C / 76.5%
h1-hermonville 24-07-2026 - 05:24 14.1°C / 78.5%
h3-hermonville 24-07-2026 - 05:20 14.8°C / 75.5%
h4-hermonville 24-07-2026 - 05:18 16.2°C / 68.5%
h2-hermonville 24-07-2026 - 05:14 14.5°C / 77%
h1-hermonville 24-07-2026 - 05:14 14.2°C / 78.5%
h3-hermonville 24-07-2026 - 05:10 15.4°C / 73%
h4-hermonville 24-07-2026 - 05:08 16.2°C / 68%
h2-hermonville 24-07-2026 - 05:04 14.4°C / 77.5%
h1-hermonville 24-07-2026 - 05:04 14.2°C / 79%
h3-hermonville 24-07-2026 - 05:00 15.2°C / 74%
h4-hermonville 24-07-2026 - 04:58 16.4°C / 68%
h1-hermonville 24-07-2026 - 04:54 14.5°C / 76.5%
h3-hermonville 24-07-2026 - 04:50 14.6°C / 75.5%
h4-hermonville 24-07-2026 - 04:48 16.3°C / 67.5%
h2-hermonville 24-07-2026 - 04:44 14.9°C / 75%
h1-hermonville 24-07-2026 - 04:44 14.6°C / 76.5%
h3-hermonville 24-07-2026 - 04:40 14.6°C / 75.5%
h4-hermonville 24-07-2026 - 04:38 16.4°C / 67%
h2-hermonville 24-07-2026 - 04:34 15.1°C / 74%
h1-hermonville 24-07-2026 - 04:34 14.7°C / 75.5%
h3-hermonville 24-07-2026 - 04:30 14.9°C / 74.5%
h4-hermonville 24-07-2026 - 04:28 16.6°C / 66.5%
h2-hermonville 24-07-2026 - 04:24 15°C / 74.5%
h1-hermonville 24-07-2026 - 04:24 14.7°C / 76%
h3-hermonville 24-07-2026 - 04:20 15°C / 74.5%
h4-hermonville 24-07-2026 - 04:18 16.8°C / 66.5%
h2-hermonville 24-07-2026 - 04:14 15.1°C / 74%
h1-hermonville 24-07-2026 - 04:14 15°C / 75%
h3-hermonville 24-07-2026 - 04:10 14.9°C / 74.5%
h4-hermonville 24-07-2026 - 04:08 17.1°C / 65%
h2-hermonville 24-07-2026 - 04:04 15.1°C / 73.5%
h1-hermonville 24-07-2026 - 04:04 15°C / 75%
h3-hermonville 24-07-2026 - 04:00 15.2°C / 73%
h4-hermonville 24-07-2026 - 03:58 16.7°C / 67%
h2-hermonville 24-07-2026 - 03:54 15.8°C / 72%
h1-hermonville 24-07-2026 - 03:54 14.6°C / 76.5%
h3-hermonville 24-07-2026 - 03:50 15.9°C / 71%
h4-hermonville 24-07-2026 - 03:48 16.6°C / 67.5%
h2-hermonville 24-07-2026 - 03:44 15.9°C / 72%
h1-hermonville 24-07-2026 - 03:44 14.6°C / 77.5%
h3-hermonville 24-07-2026 - 03:40 16.3°C / 69.5%
h4-hermonville 24-07-2026 - 03:38 16.7°C / 67%
h2-hermonville 24-07-2026 - 03:34 16°C / 71%
h1-hermonville 24-07-2026 - 03:34 14.7°C / 77%
h3-hermonville 24-07-2026 - 03:30 16.3°C / 69%
h4-hermonville 24-07-2026 - 03:28 16.9°C / 66%
h2-hermonville 24-07-2026 - 03:24 15.9°C / 71.5%
h1-hermonville 24-07-2026 - 03:24 14.8°C / 77%
h3-hermonville 24-07-2026 - 03:20 16.7°C / 68%
h4-hermonville 24-07-2026 - 03:18 17°C / 65.5%
h2-hermonville 24-07-2026 - 03:14 16°C / 71%
h1-hermonville 24-07-2026 - 03:14 14.9°C / 76%
h3-hermonville 24-07-2026 - 03:10 16.4°C / 69%
h4-hermonville 24-07-2026 - 03:08 16.9°C / 65.5%
h2-hermonville 24-07-2026 - 03:04 16.2°C / 69.5%
h1-hermonville 24-07-2026 - 03:04 15°C / 75%
h3-hermonville 24-07-2026 - 03:00 16.1°C / 69%
h4-hermonville 24-07-2026 - 02:58 17°C / 65%
h2-hermonville 24-07-2026 - 02:54 16.4°C / 68.5%
h1-hermonville 24-07-2026 - 02:54 15.2°C / 73.5%
h3-hermonville 24-07-2026 - 02:50 16.3°C / 69%
h4-hermonville 24-07-2026 - 02:48 17.3°C / 64.5%
h1-hermonville 24-07-2026 - 02:44 15.3°C / 74%
h3-hermonville 24-07-2026 - 02:40 16.7°C / 68%
h4-hermonville 24-07-2026 - 02:38 17.9°C / 62%
h2-hermonville 24-07-2026 - 02:34 17°C / 67%
h1-hermonville 24-07-2026 - 02:34 15.3°C / 74%
h3-hermonville 24-07-2026 - 02:30 17°C / 66.5%
h4-hermonville 24-07-2026 - 02:28 18.4°C / 60.5%
h2-hermonville 24-07-2026 - 02:24 17.1°C / 67%
h1-hermonville 24-07-2026 - 02:24 15.4°C / 73.5%
h3-hermonville 24-07-2026 - 02:20 17.1°C / 66.5%
h4-hermonville 24-07-2026 - 02:18 18.4°C / 60.5%
h1-hermonville 24-07-2026 - 02:14 15.5°C / 73%
h3-hermonville 24-07-2026 - 02:10 17.3°C / 65.5%
h4-hermonville 24-07-2026 - 02:08 18.7°C / 59.5%
h2-hermonville 24-07-2026 - 02:04 17.3°C / 66%
h1-hermonville 24-07-2026 - 02:04 15.5°C / 72.5%
h3-hermonville 24-07-2026 - 02:00 17.4°C / 64.5%
h4-hermonville 24-07-2026 - 01:58 18.6°C / 60%
h2-hermonville 24-07-2026 - 01:54 17.6°C / 65%
h1-hermonville 24-07-2026 - 01:54 15.9°C / 71.5%
h3-hermonville 24-07-2026 - 01:50 17.5°C / 64.5%
h2-hermonville 24-07-2026 - 01:44 17.8°C / 64%
h1-hermonville 24-07-2026 - 01:44 16.1°C / 71%
h3-hermonville 24-07-2026 - 01:40 17.7°C / 64%
h4-hermonville 24-07-2026 - 01:38 18.9°C / 59%
h2-hermonville 24-07-2026 - 01:34 18.2°C / 63%
h1-hermonville 24-07-2026 - 01:34 16.2°C / 70.5%
h3-hermonville 24-07-2026 - 01:30 17.9°C / 63.5%
h4-hermonville 24-07-2026 - 01:28 18.9°C / 59%
h2-hermonville 24-07-2026 - 01:24 18.5°C / 62%
h1-hermonville 24-07-2026 - 01:24 16.2°C / 70.5%
h3-hermonville 24-07-2026 - 01:20 17.8°C / 63.5%
h4-hermonville 24-07-2026 - 01:18 19°C / 59%
h2-hermonville 24-07-2026 - 01:14 18.2°C / 62.5%
h1-hermonville 24-07-2026 - 01:14 16.3°C / 69.5%
h3-hermonville 24-07-2026 - 01:10 18°C / 62.5%
h4-hermonville 24-07-2026 - 01:08 18.9°C / 59%
h2-hermonville 24-07-2026 - 01:04 18.6°C / 61.5%
h1-hermonville 24-07-2026 - 01:04 16.4°C / 69%
h3-hermonville 24-07-2026 - 01:00 18.1°C / 62%
h4-hermonville 24-07-2026 - 00:58 19.2°C / 58%
h2-hermonville 24-07-2026 - 00:54 18.7°C / 60.5%
h1-hermonville 24-07-2026 - 00:54 16.5°C / 68.5%
h3-hermonville 24-07-2026 - 00:50 18.3°C / 61%
h4-hermonville 24-07-2026 - 00:48 19.2°C / 58%
h2-hermonville 24-07-2026 - 00:44 19.6°C / 58.5%
h1-hermonville 24-07-2026 - 00:44 16.7°C / 68%
h3-hermonville 24-07-2026 - 00:40 18.6°C / 60.5%
h4-hermonville 24-07-2026 - 00:38 19.2°C / 57.5%
h2-hermonville 24-07-2026 - 00:34 19.2°C / 59%
h1-hermonville 24-07-2026 - 00:34 16.8°C / 67%
h3-hermonville 24-07-2026 - 00:30 18.9°C / 59.5%
h4-hermonville 24-07-2026 - 00:28 19.2°C / 57.5%
h2-hermonville 24-07-2026 - 00:24 19.8°C / 57%
h1-hermonville 24-07-2026 - 00:24 17°C / 66.5%
h3-hermonville 24-07-2026 - 00:20 18.9°C / 59%
h4-hermonville 24-07-2026 - 00:18 19.6°C / 57%
h1-hermonville 24-07-2026 - 00:14 17.2°C / 65.5%
h3-hermonville 24-07-2026 - 00:10 19°C / 59%
h4-hermonville 24-07-2026 - 00:08 19.5°C / 56.5%
h2-hermonville 24-07-2026 - 00:04 20.1°C / 56%
h1-hermonville 24-07-2026 - 00:04 17.4°C / 65%
h3-hermonville 24-07-2026 - 00:00 19.2°C / 58.5%